Time;durP1;ratioP1;P1;durP2;ratioP2;P2;SDS_P1;SDS_P2;PMS_P1;PMS_P2;Temp;Humidity;BMP_temperature;BMP_pressure;BME280_temperature;BME280_humidity;BME280_pressure;Samples;Min_cycle;Max_cycle;Signal;HPM_P1;HPM_P2
2022/09/22 00:00:15;;;;;;;4.15;3.08;;;10.10;99.90;;;;;;5135108;27;20217;-54
2022/09/22 00:02:41;;;;;;;4.32;3.00;;;10.10;99.90;;;;;;5134118;27;20562;-53
2022/09/22 00:05:07;;;;;;;6.45;3.08;;;10.20;99.90;;;;;;5134786;27;20171;-53
2022/09/22 00:07:33;;;;;;;4.93;3.20;;;10.10;99.90;;;;;;5134638;27;20633;-53
2022/09/22 00:09:58;;;;;;;4.85;3.60;;;10.10;99.90;;;;;;5134702;27;20721;-54
2022/09/22 00:12:24;;;;;;;5.03;3.08;;;10.10;99.90;;;;;;5133969;27;20179;-53
2022/09/22 00:14:50;;;;;;;4.53;3.42;;;10.00;99.90;;;;;;5133568;27;20247;-54
2022/09/22 00:17:16;;;;;;;5.18;3.55;;;10.00;99.90;;;;;;5134760;27;20178;-53
2022/09/22 00:19:41;;;;;;;3.45;2.80;;;10.00;99.90;;;;;;5134370;27;20713;-53
2022/09/22 00:22:07;;;;;;;4.88;3.10;;;10.00;99.90;;;;;;5134447;27;20168;-54
2022/09/22 00:24:33;;;;;;;3.65;2.83;;;10.00;99.90;;;;;;5134337;27;20640;-53
2022/09/22 00:26:59;;;;;;;4.63;3.17;;;9.90;99.90;;;;;;5134174;27;20179;-53
2022/09/22 00:29:26;;;;;;;5.22;3.20;;;10.00;99.90;;;;;;5132930;27;20160;-53
2022/09/22 00:31:53;;;;;;;5.28;4.15;;;10.00;99.90;;;;;;5133987;27;20227;-53
2022/09/22 00:34:21;;;;;;;8.38;3.85;;;10.00;99.90;;;;;;5134662;27;20172;-54
2022/09/22 00:36:48;;;;;;;4.50;3.40;;;10.00;99.90;;;;;;5134417;27;20170;-53
2022/09/22 00:39:15;;;;;;;5.45;4.75;;;10.00;99.90;;;;;;5133599;27;20160;-53
2022/09/22 00:41:44;;;;;;;3.63;2.78;;;10.00;99.90;;;;;;5133889;27;20655;-53
2022/09/22 00:44:28;;;;;;;5.65;3.45;;;9.90;99.90;;;;;;5133773;27;20522;-53
2022/09/22 00:47:21;;;;;;;7.97;3.42;;;9.90;99.90;;;;;;5133824;27;20644;-53
2022/09/22 00:50:08;;;;;;;5.68;2.95;;;9.90;99.90;;;;;;5132344;27;20175;-53
2022/09/22 00:52:58;;;;;;;4.45;2.63;;;9.80;99.90;;;;;;5133631;27;20179;-53
2022/09/22 00:55:31;;;;;;;3.78;3.05;;;9.70;99.90;;;;;;5133832;27;20195;-53
2022/09/22 00:57:58;;;;;;;5.70;3.25;;;9.80;99.90;;;;;;5133660;27;20255;-53
2022/09/22 01:00:24;;;;;;;4.75;3.00;;;9.80;99.90;;;;;;5133528;27;20160;-53
2022/09/22 01:02:54;;;;;;;4.38;2.92;;;9.70;99.90;;;;;;5132612;27;20216;-53
2022/09/22 01:05:21;;;;;;;3.75;2.67;;;9.80;99.90;;;;;;5133821;27;20160;-53
2022/09/22 01:07:47;;;;;;;5.65;2.90;;;9.70;99.90;;;;;;5133982;27;20168;-53
2022/09/22 01:10:13;;;;;;;5.60;3.50;;;9.70;99.90;;;;;;5133413;27;20291;-53
2022/09/22 01:12:46;;;;;;;4.05;2.85;;;9.70;99.90;;;;;;5133095;27;20172;-54
2022/09/22 01:15:36;;;;;;;3.22;2.40;;;9.70;99.90;;;;;;5133290;27;20226;-53
2022/09/22 01:18:08;;;;;;;3.10;2.55;;;9.70;99.90;;;;;;5133278;27;20663;-53
2022/09/22 01:20:51;;;;;;;6.90;3.10;;;9.70;99.90;;;;;;5133201;27;20234;-53
2022/09/22 01:23:40;;;;;;;5.80;3.25;;;9.70;99.90;;;;;;5133653;27;20519;-53
2022/09/22 01:26:28;;;;;;;6.75;3.08;;;9.60;99.90;;;;;;5133245;27;20168;-53
2022/09/22 01:29:22;;;;;;;4.05;2.72;;;9.60;99.90;;;;;;5133339;27;20638;-53
2022/09/22 01:32:21;;;;;;;4.47;3.05;;;9.60;99.90;;;;;;5133158;27;20235;-53
2022/09/22 01:34:55;;;;;;;4.30;2.72;;;9.50;99.90;;;;;;5125092;27;20191;-53
2022/09/22 01:37:46;;;;;;;5.07;2.97;;;9.50;99.90;;;;;;5133333;27;20163;-53
2022/09/22 01:40:22;;;;;;;3.45;2.83;;;9.50;99.90;;;;;;5132651;27;20249;-53
2022/09/22 01:42:56;;;;;;;3.85;2.50;;;9.50;99.90;;;;;;5133316;27;20216;-53
2022/09/22 01:45:28;;;;;;;5.88;2.72;;;9.50;99.90;;;;;;5133128;27;20168;-53
2022/09/22 01:48:34;;;;;;;4.93;2.58;;;9.50;99.90;;;;;;5132844;27;20651;-53
2022/09/22 01:51:06;;;;;;;7.00;3.15;;;9.40;99.90;;;;;;5089685;28;20724;-53
2022/09/22 01:53:38;;;;;;;5.38;2.83;;;9.40;99.90;;;;;;5089583;28;20229;-53
2022/09/22 01:56:08;;;;;;;8.50;3.70;;;9.30;99.90;;;;;;5112977;28;20180;-53
2022/09/22 01:58:39;;;;;;;5.03;3.00;;;9.30;99.90;;;;;;5132430;27;20199;-53
2022/09/22 02:01:36;;;;;;;3.58;2.67;;;9.30;99.90;;;;;;5132168;27;20164;-53
2022/09/22 02:04:15;;;;;;;4.85;2.78;;;9.20;99.90;;;;;;5132895;27;20186;-53
2022/09/22 02:07:00;;;;;;;6.32;3.28;;;9.20;99.90;;;;;;5132538;28;20164;-53
2022/09/22 02:09:29;;;;;;;2.75;2.30;;;9.20;99.90;;;;;;5132434;27;20156;-53
2022/09/22 02:11:56;;;;;;;4.50;3.20;;;9.20;99.90;;;;;;5132458;27;20268;-53
2022/09/22 02:14:23;;;;;;;6.18;3.00;;;9.10;99.90;;;;;;5132529;28;20156;-53
2022/09/22 02:16:50;;;;;;;7.43;2.90;;;9.10;99.90;;;;;;5132892;28;20167;-53
2022/09/22 02:19:31;;;;;;;3.80;2.67;;;9.20;99.90;;;;;;5132718;27;20168;-53
2022/09/22 02:21:57;;;;;;;5.13;2.80;;;9.20;99.90;;;;;;5132447;28;20213;-53
2022/09/22 02:24:31;;;;;;;4.53;2.95;;;9.20;99.90;;;;;;5132495;28;20167;-53
2022/09/22 02:27:04;;;;;;;6.45;3.38;;;9.20;99.90;;;;;;5132342;28;20641;-53
2022/09/22 02:29:34;;;;;;;4.35;2.85;;;9.20;99.90;;;;;;5132306;28;20176;-54
2022/09/22 02:32:05;;;;;;;6.03;3.08;;;9.20;99.90;;;;;;5132340;28;20203;-54
2022/09/22 02:34:30;;;;;;;7.95;3.42;;;9.20;99.90;;;;;;5132261;27;20219;-53
2022/09/22 02:37:14;;;;;;;5.03;3.60;;;9.20;99.90;;;;;;5132619;28;20195;-53
2022/09/22 02:40:01;;;;;;;5.05;3.45;;;9.20;99.90;;;;;;5132233;28;20164;-54
2022/09/22 02:42:58;;;;;;;8.77;3.28;;;9.20;99.90;;;;;;5132029;28;20164;-54
2022/09/22 02:45:41;;;;;;;7.88;3.33;;;9.20;99.90;;;;;;5093945;27;20194;-53
2022/09/22 02:48:20;;;;;;;11.57;3.97;;;9.20;99.90;;;;;;5132371;28;20172;-53
2022/09/22 02:50:45;;;;;;;9.05;3.70;;;9.20;99.90;;;;;;5134486;27;20207;-53
2022/09/22 02:53:13;;;;;;;7.85;4.05;;;9.20;99.90;;;;;;5135907;27;20214;-53
2022/09/22 02:55:40;;;;;;;5.38;3.10;;;9.20;99.90;;;;;;5136131;27;20175;-53
2022/09/22 02:58:06;;;;;;;9.02;3.55;;;9.20;99.90;;;;;;5135898;27;20159;-53
2022/09/22 03:00:31;;;;;;;13.80;4.30;;;9.20;99.90;;;;;;5135992;27;20172;-54
2022/09/22 03:02:57;;;;;;;6.03;3.55;;;9.20;99.90;;;;;;5136172;27;20176;-53
2022/09/22 03:05:23;;;;;;;6.50;3.63;;;9.20;99.90;;;;;;5136239;27;20168;-53
2022/09/22 03:07:49;;;;;;;7.00;3.53;;;9.10;99.90;;;;;;5136270;27;20164;-53
2022/09/22 03:10:14;;;;;;;9.20;4.40;;;9.10;99.90;;;;;;5135662;27;20187;-53
2022/09/22 03:12:41;;;;;;;5.97;3.55;;;9.00;99.90;;;;;;5135971;27;20172;-53
2022/09/22 03:15:09;;;;;;;8.07;4.22;;;9.00;99.90;;;;;;5135699;27;20160;-53
2022/09/22 03:17:35;;;;;;;14.68;3.78;;;8.90;99.90;;;;;;5135620;27;20569;-53
2022/09/22 03:20:01;;;;;;;6.97;3.95;;;8.90;99.90;;;;;;5135464;27;20195;-53
2022/09/22 03:22:27;;;;;;;5.22;3.58;;;8.90;99.90;;;;;;5135232;27;20675;-53
2022/09/22 03:24:52;;;;;;;11.57;4.30;;;8.90;99.90;;;;;;5135501;27;20164;-53
2022/09/22 03:27:18;;;;;;;7.75;4.38;;;8.90;99.90;;;;;;5135899;27;20160;-53
2022/09/22 03:29:43;;;;;;;8.48;4.47;;;8.80;99.90;;;;;;5135385;27;20174;-53
2022/09/22 03:32:09;;;;;;;10.30;3.92;;;8.80;99.90;;;;;;5135280;27;20242;-53
2022/09/22 03:34:34;;;;;;;14.65;4.75;;;8.80;99.90;;;;;;5135560;27;20256;-53
2022/09/22 03:37:00;;;;;;;6.72;4.10;;;8.80;99.90;;;;;;5135077;27;20681;-53
2022/09/22 03:39:25;;;;;;;9.73;4.50;;;8.80;99.90;;;;;;5135315;27;20247;-53
2022/09/22 03:41:51;;;;;;;7.25;4.10;;;8.80;99.90;;;;;;5135254;27;20202;-53
2022/09/22 03:44:17;;;;;;;12.85;4.38;;;8.70;99.90;;;;;;5135603;27;20164;-53
2022/09/22 03:46:42;;;;;;;13.57;4.40;;;8.80;99.90;;;;;;5134733;27;20172;-53
2022/09/22 03:49:08;;;;;;;10.27;4.78;;;8.80;99.90;;;;;;5135006;27;20160;-53
2022/09/22 03:51:33;;;;;;;9.27;4.57;;;8.70;99.90;;;;;;5135121;27;20592;-53
2022/09/22 03:53:59;;;;;;;9.88;4.25;;;8.80;99.90;;;;;;5134968;27;20602;-53
2022/09/22 03:56:25;;;;;;;5.80;3.70;;;8.70;99.90;;;;;;5135168;27;20167;-54
2022/09/22 03:58:51;;;;;;;6.03;3.60;;;8.70;99.90;;;;;;5134609;27;20642;-53
2022/09/22 04:01:16;;;;;;;8.27;3.95;;;8.70;99.90;;;;;;5134292;27;20224;-53
2022/09/22 04:03:42;;;;;;;7.15;3.80;;;8.70;99.90;;;;;;5134915;27;20172;-53
2022/09/22 04:06:08;;;;;;;8.05;3.83;;;8.60;99.90;;;;;;5134920;27;20170;-53
2022/09/22 04:08:34;;;;;;;7.63;4.43;;;8.60;99.90;;;;;;5135016;27;20172;-53
2022/09/22 04:11:02;;;;;;;11.27;3.92;;;8.60;99.90;;;;;;5134506;27;20256;-53
2022/09/22 04:13:27;;;;;;;7.22;3.90;;;8.70;99.90;;;;;;5134423;27;20171;-53
2022/09/22 04:15:53;;;;;;;11.57;3.80;;;8.70;99.90;;;;;;5134502;27;20164;-53
2022/09/22 04:18:18;;;;;;;7.70;3.60;;;8.70;99.90;;;;;;5135136;27;20168;-53
2022/09/22 04:20:44;;;;;;;9.23;4.40;;;8.60;99.90;;;;;;5134658;27;20187;-53
2022/09/22 04:23:10;;;;;;;6.55;3.63;;;8.50;99.90;;;;;;5134646;27;20182;-53
2022/09/22 04:25:36;;;;;;;13.13;3.97;;;8.50;99.90;;;;;;5134024;27;20189;-54
2022/09/22 04:28:06;;;;;;;5.85;3.40;;;8.50;99.90;;;;;;5133983;27;20164;-54
2022/09/22 04:30:32;;;;;;;7.68;4.25;;;8.40;99.90;;;;;;5132821;27;20210;-54
2022/09/22 04:32:58;;;;;;;5.35;3.60;;;8.30;99.90;;;;;;5134151;27;20575;-54
2022/09/22 04:35:27;;;;;;;11.73;4.45;;;8.40;99.90;;;;;;5132778;27;20164;-54
2022/09/22 04:37:54;;;;;;;6.03;3.67;;;8.40;99.90;;;;;;5133913;27;20193;-53
2022/09/22 04:40:21;;;;;;;6.80;3.83;;;8.40;99.90;;;;;;5134401;27;20156;-54
2022/09/22 04:42:46;;;;;;;8.60;3.85;;;8.40;99.90;;;;;;5134300;27;20175;-54
2022/09/22 04:45:13;;;;;;;6.68;3.50;;;8.30;99.90;;;;;;5134067;27;20176;-54
2022/09/22 04:47:39;;;;;;;7.07;4.22;;;8.30;99.90;;;;;;5133762;27;20560;-53
2022/09/22 04:50:05;;;;;;;6.32;3.38;;;8.20;99.90;;;;;;5133797;27;20192;-54
2022/09/22 04:52:31;;;;;;;7.95;4.45;;;8.20;99.90;;;;;;5133777;27;20225;-54
2022/09/22 04:54:56;;;;;;;7.40;4.45;;;8.20;99.90;;;;;;5133482;27;20591;-54
2022/09/22 04:57:22;;;;;;;8.95;4.47;;;8.20;99.90;;;;;;5133498;27;20186;-54
2022/09/22 04:59:48;;;;;;;9.38;4.30;;;8.10;99.90;;;;;;5133882;27;20216;-54
2022/09/22 05:02:13;;;;;;;7.95;3.97;;;8.20;99.90;;;;;;5137463;27;20204;-59
2022/09/22 05:04:39;;;;;;;4.78;3.92;;;8.20;99.90;;;;;;5143240;27;20224;-58
2022/09/22 05:07:05;;;;;;;9.05;4.05;;;8.10;99.90;;;;;;5132414;27;20167;-53
2022/09/22 05:09:30;;;;;;;8.35;3.95;;;8.20;99.90;;;;;;5131684;27;20211;-53
2022/09/22 05:11:58;;;;;;;9.05;4.40;;;8.20;99.90;;;;;;5131995;27;20207;-53
2022/09/22 05:14:23;;;;;;;7.35;3.88;;;8.20;99.90;;;;;;5130982;27;20658;-55
2022/09/22 05:16:49;;;;;;;9.00;3.65;;;8.20;99.90;;;;;;5134832;27;20161;-52
2022/09/22 05:19:14;;;;;;;5.28;3.88;;;8.10;99.90;;;;;;5152730;27;20647;-51
2022/09/22 05:21:40;;;;;;;9.35;4.18;;;8.10;99.90;;;;;;5152700;27;20690;-54
2022/09/22 05:24:06;;;;;;;9.30;4.53;;;8.10;99.90;;;;;;5152834;27;20554;-53
2022/09/22 05:26:31;;;;;;;6.30;3.85;;;8.10;99.90;;;;;;5152498;27;20537;-52
2022/09/22 05:28:57;;;;;;;14.20;4.63;;;8.10;99.90;;;;;;5152650;27;20215;-52
2022/09/22 05:31:23;;;;;;;11.55;5.53;;;8.10;99.90;;;;;;5152680;27;20287;-54
2022/09/22 05:33:49;;;;;;;9.20;5.50;;;8.20;99.90;;;;;;5152992;27;20166;-52
2022/09/22 05:36:15;;;;;;;9.98;5.80;;;8.20;99.90;;;;;;5152373;27;20585;-51
2022/09/22 05:38:41;;;;;;;6.55;5.15;;;8.20;99.90;;;;;;5151129;27;20262;-52
2022/09/22 05:41:06;;;;;;;6.55;4.85;;;8.20;99.90;;;;;;5152195;27;20579;-50
2022/09/22 05:43:32;;;;;;;8.32;5.18;;;8.30;99.90;;;;;;5152216;27;20523;-56
2022/09/22 05:45:57;;;;;;;10.35;5.68;;;8.30;99.90;;;;;;5152211;27;20180;-50
2022/09/22 05:48:23;;;;;;;6.93;5.32;;;8.40;99.90;;;;;;5152202;27;20159;-50
2022/09/22 05:50:48;;;;;;;8.20;5.28;;;8.40;99.90;;;;;;5152637;27;20210;-51
2022/09/22 05:53:15;;;;;;;8.30;4.85;;;8.40;99.90;;;;;;5152016;27;20303;-49
2022/09/22 05:55:41;;;;;;;6.88;4.90;;;8.50;99.90;;;;;;5151993;27;20276;-52
2022/09/22 05:58:10;;;;;;;9.15;5.28;;;8.50;99.90;;;;;;5152182;27;20240;-51
2022/09/22 06:00:36;;;;;;;11.82;5.00;;;8.60;99.90;;;;;;5152339;27;20159;-53
2022/09/22 06:03:02;;;;;;;5.40;4.55;;;8.60;99.90;;;;;;5152182;27;20632;-52
2022/09/22 06:05:28;;;;;;;8.52;4.60;;;8.70;99.90;;;;;;5152096;27;20159;-46
2022/09/22 06:08:02;;;;;;;8.25;5.35;;;8.70;99.90;;;;;;5152045;27;20166;-48
2022/09/22 06:10:30;;;;;;;7.78;4.68;;;8.70;99.90;;;;;;5152179;27;20659;-53
2022/09/22 06:13:00;;;;;;;10.02;4.97;;;8.70;99.90;;;;;;5152217;27;20211;-54
2022/09/22 06:15:27;;;;;;;7.82;4.50;;;8.70;99.90;;;;;;5151874;27;20159;-55
2022/09/22 06:17:54;;;;;;;9.98;4.50;;;8.80;99.90;;;;;;5151996;27;20178;-55
2022/09/22 06:20:19;;;;;;;6.55;4.63;;;8.80;99.90;;;;;;5152501;27;20191;-48
2022/09/22 06:22:45;;;;;;;7.20;4.97;;;8.90;99.90;;;;;;5152214;27;20592;-53
2022/09/22 06:25:10;;;;;;;12.43;4.75;;;8.90;99.90;;;;;;5153394;27;20168;-55
2022/09/22 06:27:36;;;;;;;6.63;4.72;;;8.90;99.90;;;;;;5155877;27;20167;-51
2022/09/22 06:30:03;;;;;;;10.85;4.90;;;8.90;99.90;;;;;;5156032;27;20555;-55
2022/09/22 06:32:28;;;;;;;10.73;5.25;;;9.00;99.90;;;;;;5156470;27;20163;-54
2022/09/22 06:34:54;;;;;;;9.52;4.72;;;9.00;99.90;;;;;;5155928;27;20196;-53
2022/09/22 06:37:22;;;;;;;10.98;5.40;;;9.10;99.90;;;;;;5156196;27;20171;-53
2022/09/22 06:39:47;;;;;;;10.88;4.88;;;9.30;99.90;;;;;;5156338;27;20175;-53
2022/09/22 06:42:16;;;;;;;7.93;5.10;;;9.30;99.90;;;;;;5155834;27;20163;-53
2022/09/22 06:44:43;;;;;;;7.88;4.65;;;9.40;99.90;;;;;;5155642;27;20216;-54
2022/09/22 06:47:09;;;;;;;10.07;5.55;;;9.40;99.90;;;;;;5155564;27;20671;-53
2022/09/22 06:49:34;;;;;;;9.65;5.45;;;9.50;99.90;;;;;;5155638;27;20155;-53
2022/09/22 06:52:00;;;;;;;9.18;5.28;;;9.60;99.90;;;;;;5155514;27;20214;-53
2022/09/22 06:54:26;;;;;;;7.80;5.88;;;9.70;99.90;;;;;;5155374;27;20707;-53
2022/09/22 06:56:51;;;;;;;13.65;5.72;;;9.80;99.90;;;;;;5155447;27;20174;-53
2022/09/22 06:59:17;;;;;;;8.40;4.82;;;9.90;99.90;;;;;;5155927;27;20159;-54
2022/09/22 07:01:43;;;;;;;7.68;5.35;;;10.00;99.90;;;;;;5155202;27;20295;-54
2022/09/22 07:04:10;;;;;;;11.05;5.57;;;10.10;99.90;;;;;;5155781;27;20741;-53
2022/09/22 07:06:36;;;;;;;8.88;5.13;;;10.20;99.90;;;;;;5155411;27;20264;-53
2022/09/22 07:09:03;;;;;;;11.57;5.55;;;10.30;99.90;;;;;;5155259;27;20613;-53
2022/09/22 07:11:29;;;;;;;10.52;6.18;;;10.50;99.90;;;;;;5155116;27;20199;-54
2022/09/22 07:13:55;;;;;;;9.38;5.55;;;10.50;99.90;;;;;;5153804;27;20159;-55
2022/09/22 07:16:22;;;;;;;12.60;5.20;;;10.70;99.90;;;;;;5155191;27;20619;-57
2022/09/22 07:18:50;;;;;;;14.57;5.13;;;10.80;99.90;;;;;;5155665;27;20212;-52
2022/09/22 07:21:25;;;;;;;8.55;4.97;;;10.90;99.90;;;;;;5155319;27;20163;-54
2022/09/22 07:23:53;;;;;;;12.68;6.68;;;11.00;99.90;;;;;;5155023;27;20649;-54
2022/09/22 07:26:25;;;;;;;12.70;5.22;;;11.10;99.90;;;;;;5155608;27;20262;-52
2022/09/22 07:28:57;;;;;;;8.52;5.40;;;11.20;99.90;;;;;;5155163;27;20254;-53
2022/09/22 07:31:23;;;;;;;12.82;5.30;;;11.20;99.90;;;;;;5154984;27;20207;-53
2022/09/22 07:33:51;;;;;;;14.45;5.50;;;11.40;99.90;;;;;;5155412;27;20233;-53
2022/09/22 07:36:27;;;;;;;9.60;5.20;;;11.60;99.90;;;;;;5154067;27;20214;-52
2022/09/22 07:38:56;;;;;;;8.90;5.18;;;11.70;99.90;;;;;;5154614;27;20159;-52
2022/09/22 07:41:27;;;;;;;15.48;5.28;;;11.90;99.90;;;;;;5154717;27;20167;-53
2022/09/22 07:46:42;;;;;;;17.75;5.32;;;12.00;99.90;;;;;;5154666;27;20214;-53
2022/09/22 07:49:08;;;;;;;9.05;5.38;;;12.10;99.90;;;;;;5154333;27;20168;-53
2022/09/22 07:51:34;;;;;;;10.38;4.82;;;12.20;99.90;;;;;;5154263;27;20199;-53
2022/09/22 07:54:09;;;;;;;9.85;4.70;;;12.30;99.90;;;;;;5154349;27;20251;-53
2022/09/22 07:56:38;;;;;;;11.18;4.72;;;12.40;99.90;;;;;;5154467;27;20167;-53
2022/09/22 07:59:07;;;;;;;11.65;4.95;;;12.60;99.90;;;;;;5154208;27;20174;-54
2022/09/22 08:01:34;;;;;;;11.15;4.22;;;12.50;99.90;;;;;;5154392;27;20176;-53
2022/09/22 08:04:00;;;;;;;9.30;4.40;;;12.60;99.90;;;;;;5154226;27;20592;-53
2022/09/22 08:06:26;;;;;;;10.70;5.07;;;12.80;99.90;;;;;;5153986;27;20299;-53
2022/09/22 08:08:55;;;;;;;7.43;3.83;;;13.00;99.90;;;;;;5154118;27;20211;-54
2022/09/22 08:11:23;;;;;;;7.47;3.95;;;13.10;99.90;;;;;;5153936;27;20282;-53
2022/09/22 08:13:52;;;;;;;8.93;4.20;;;13.10;99.90;;;;;;5154507;27;20178;-53
2022/09/22 08:16:18;;;;;;;8.48;4.55;;;13.20;99.90;;;;;;5154299;27;20612;-54
2022/09/22 08:18:48;;;;;;;9.82;5.00;;;13.30;99.90;;;;;;5153987;27;20201;-54
2022/09/22 08:21:18;;;;;;;5.25;4.07;;;13.40;99.90;;;;;;5154206;27;20163;-55
2022/09/22 08:23:44;;;;;;;8.05;4.90;;;13.50;99.90;;;;;;5153826;27;20163;-53
2022/09/22 08:26:09;;;;;;;10.52;4.65;;;13.60;99.90;;;;;;5153807;27;20171;-54
2022/09/22 08:28:35;;;;;;;9.75;5.70;;;13.70;99.90;;;;;;5153558;27;20568;-54
2022/09/22 08:31:02;;;;;;;8.65;4.05;;;13.70;99.90;;;;;;5153761;27;20597;-54
2022/09/22 08:33:30;;;;;;;9.38;5.22;;;13.80;99.90;;;;;;5153638;27;20234;-51
2022/09/22 08:35:59;;;;;;;7.57;3.90;;;13.90;99.90;;;;;;5153753;27;20254;-53
2022/09/22 08:38:27;;;;;;;6.97;4.03;;;14.00;99.90;;;;;;5153817;27;20202;-53
2022/09/22 08:41:14;;;;;;;7.85;3.92;;;14.10;99.90;;;;;;5153679;27;20167;-54
2022/09/22 08:43:54;;;;;;;7.15;4.78;;;14.20;99.90;;;;;;5153434;27;20163;-53
2022/09/22 08:46:30;;;;;;;10.70;4.40;;;14.20;99.90;;;;;;5153353;27;20516;-53
2022/09/22 08:52:05;;;;;;;11.18;5.05;;;14.50;99.90;;;;;;5153121;27;20693;-53
2022/09/22 08:54:31;;;;;;;9.63;4.70;;;14.50;99.90;;;;;;5153023;27;20556;-54
2022/09/22 08:57:10;;;;;;;10.70;4.55;;;14.50;99.90;;;;;;5151816;27;20619;-54
2022/09/22 08:59:50;;;;;;;7.22;4.00;;;14.70;99.90;;;;;;5153061;27;20170;-54
2022/09/22 09:02:34;;;;;;;11.32;4.40;;;14.80;99.90;;;;;;5153390;27;20702;-54
2022/09/22 09:05:23;;;;;;;7.15;3.78;;;15.00;99.90;;;;;;5153303;27;20167;-54
2022/09/22 09:07:59;;;;;;;9.25;4.07;;;15.10;99.90;;;;;;5153012;27;20619;-52
2022/09/22 09:10:51;;;;;;;6.65;3.90;;;15.20;99.90;;;;;;5151559;27;20719;-54
2022/09/22 09:13:47;;;;;;;18.33;5.60;;;15.40;99.90;;;;;;5152006;27;20266;-54
2022/09/22 09:16:35;;;;;;;8.90;4.13;;;15.60;99.90;;;;;;5152925;27;20220;-54
2022/09/22 09:19:17;;;;;;;7.95;4.47;;;15.60;99.90;;;;;;5153075;27;20163;-53
2022/09/22 09:21:56;;;;;;;11.50;4.40;;;15.70;99.90;;;;;;5151398;27;20191;-53
2022/09/22 09:24:32;;;;;;;8.52;4.32;;;15.80;99.90;;;;;;5152763;27;20643;-52
2022/09/22 09:27:05;;;;;;;8.05;3.97;;;15.90;99.90;;;;;;5152875;27;20494;-53
2022/09/22 09:29:37;;;;;;;7.95;4.13;;;15.90;99.90;;;;;;5152527;27;20328;-54
2022/09/22 09:32:09;;;;;;;10.43;3.92;;;16.00;99.90;;;;;;5152828;27;20290;-53
2022/09/22 09:34:35;;;;;;;9.32;4.38;;;16.20;99.90;;;;;;5152400;27;20238;-53
2022/09/22 09:37:09;;;;;;;6.03;4.00;;;16.10;99.90;;;;;;5152525;27;20238;-53
2022/09/22 09:39:38;;;;;;;9.32;4.03;;;16.20;99.90;;;;;;5152286;27;20219;-54
2022/09/22 09:42:27;;;;;;;8.13;3.42;;;16.40;99.90;;;;;;5152432;27;20163;-54
2022/09/22 09:44:53;;;;;;;6.25;3.17;;;16.50;99.90;;;;;;5152460;27;20208;-53
2022/09/22 09:47:28;;;;;;;7.43;3.55;;;16.70;99.90;;;;;;5152568;27;20202;-53
2022/09/22 09:49:54;;;;;;;6.20;3.28;;;16.80;99.90;;;;;;5152108;27;20170;-53
2022/09/22 09:52:20;;;;;;;7.85;3.65;;;16.90;99.90;;;;;;5152223;27;20262;-53
2022/09/22 09:54:46;;;;;;;5.72;3.42;;;17.00;99.90;;;;;;5152454;27;20702;-54
2022/09/22 09:57:14;;;;;;;5.88;3.15;;;17.10;99.90;;;;;;5152132;27;20534;-53
2022/09/22 10:02:36;;;;;;;5.35;2.90;;;17.00;99.90;;;;;;5152174;27;20683;-53
2022/09/22 10:05:06;;;;;;;6.70;3.25;;;17.20;99.90;;;;;;5152435;27;20175;-53
2022/09/22 10:07:50;;;;;;;6.85;3.25;;;17.40;99.90;;;;;;5152086;27;20534;-54
2022/09/22 10:10:32;;;;;;;4.38;2.95;;;17.60;99.90;;;;;;5152297;27;20656;-54
2022/09/22 10:13:03;;;;;;;4.78;3.22;;;17.60;99.90;;;;;;5150747;27;20230;-54
2022/09/22 10:15:40;;;;;;;4.18;2.90;;;17.60;99.90;;;;;;5151977;27;20171;-53
2022/09/22 10:18:31;;;;;;;4.60;2.80;;;17.50;99.90;;;;;;5152135;27;20159;-54
2022/09/22 10:21:21;;;;;;;4.80;2.90;;;17.60;99.90;;;;;;5152004;27;20644;-54
2022/09/22 10:23:49;;;;;;;6.03;3.28;;;17.70;99.90;;;;;;5152123;27;20159;-53
2022/09/22 10:26:18;;;;;;;5.70;3.70;;;17.90;99.90;;;;;;5152237;27;20632;-59
2022/09/22 10:28:46;;;;;;;5.82;3.33;;;17.80;99.90;;;;;;5152188;27;20167;-54
2022/09/22 10:31:25;;;;;;;3.53;2.83;;;18.00;99.90;;;;;;5151808;27;20209;-54
2022/09/22 10:33:58;;;;;;;5.05;2.90;;;18.00;99.90;;;;;;5151736;27;20237;-55
2022/09/22 10:36:26;;;;;;;4.97;2.92;;;18.00;99.90;;;;;;5151828;27;20233;-54
2022/09/22 10:38:53;;;;;;;6.20;3.45;;;18.10;99.90;;;;;;5151916;27;20651;-54
2022/09/22 10:41:26;;;;;;;5.63;3.55;;;18.20;99.90;;;;;;5151882;27;20212;-54
2022/09/22 10:44:00;;;;;;;6.72;3.55;;;18.30;99.90;;;;;;5151571;27;20712;-53
2022/09/22 10:46:41;;;;;;;5.40;4.00;;;18.20;99.90;;;;;;5151748;27;20696;-54
2022/09/22 10:49:31;;;;;;;4.57;3.35;;;18.40;99.90;;;;;;5151818;27;20175;-52
2022/09/22 10:52:16;;;;;;;3.78;3.22;;;18.20;99.90;;;;;;5151470;27;20220;-54
2022/09/22 10:55:17;;;;;;;5.20;3.75;;;18.40;99.90;;;;;;5151507;27;20225;-54
2022/09/22 10:58:07;;;;;;;6.57;3.88;;;18.50;99.90;;;;;;5151383;27;20548;-53
2022/09/22 11:00:38;;;;;;;4.95;3.35;;;18.50;99.90;;;;;;5151497;27;20167;-52
2022/09/22 11:03:12;;;;;;;7.55;3.42;;;18.60;99.90;;;;;;5151872;27;20164;-55
2022/09/22 11:12:18;;;;;;;6.38;3.55;;;18.60;99.90;;;;;;5153777;27;20627;-55
2022/09/22 11:14:53;;;;;;;4.22;2.97;;;18.60;99.90;;;;;;5155502;27;20183;-54
2022/09/22 11:17:30;;;;;;;3.58;2.85;;;18.80;99.90;;;;;;5155165;27;20170;-53
2022/09/22 11:20:18;;;;;;;4.82;3.28;;;22.70;99.90;;;;;;5155071;27;20213;-54
2022/09/22 11:22:53;;;;;;;5.10;3.10;;;19.00;99.90;;;;;;5155426;27;20632;-54
2022/09/22 11:25:50;;;;;;;3.67;2.90;;;19.10;99.90;;;;;;5154842;27;20619;-53
2022/09/22 11:28:24;;;;;;;5.30;3.00;;;19.10;99.90;;;;;;5155182;27;20167;-53
2022/09/22 11:30:51;;;;;;;4.95;3.25;;;19.10;99.90;;;;;;5154714;27;20199;-52
2022/09/22 11:33:39;;;;;;;3.63;3.03;;;19.10;99.90;;;;;;5155425;27;20167;-53
2022/09/22 11:36:05;;;;;;;5.05;2.97;;;19.20;99.90;;;;;;5153552;27;20589;-54
2022/09/22 11:38:59;;;;;;;3.05;1.60;;;19.30;99.90;;;;;;5155035;27;20191;-54
2022/09/22 11:41:36;;;;;;;3.67;1.60;;;19.10;99.90;;;;;;5154743;27;20251;-53
2022/09/22 11:44:27;;;;;;;3.17;1.80;;;19.30;99.90;;;;;;5154775;27;20192;-54
2022/09/22 11:47:20;;;;;;;1.95;1.50;;;19.40;99.90;;;;;;5154648;27;20262;-54
2022/09/22 11:49:56;;;;;;;4.72;2.38;;;19.20;99.90;;;;;;5154735;27;20151;-54
2022/09/22 11:52:45;;;;;;;4.40;2.83;;;19.30;99.90;;;;;;5154509;27;20203;-54
2022/09/22 11:55:47;;;;;;;2.70;2.50;;;19.50;99.90;;;;;;5154345;27;20214;-54
2022/09/22 11:58:23;;;;;;;2.80;2.50;;;19.50;99.90;;;;;;5121728;27;20207;-54
2022/09/22 12:01:13;;;;;;;4.05;2.78;;;19.40;99.90;;;;;;5154326;27;20175;-52
2022/09/22 12:03:49;;;;;;;3.33;2.40;;;19.40;99.90;;;;;;5154561;27;20314;-54
2022/09/22 12:06:20;;;;;;;3.47;2.67;;;19.60;99.90;;;;;;5154730;27;20171;-54
2022/09/22 12:09:02;;;;;;;3.83;2.30;;;19.70;99.90;;;;;;5154611;27;20197;-53
2022/09/22 12:11:29;;;;;;;3.65;2.70;;;19.70;99.90;;;;;;5154281;27;20229;-53
2022/09/22 12:13:57;;;;;;;5.97;2.35;;;19.60;99.90;;;;;;5154126;27;20167;-54
2022/09/22 12:16:40;;;;;;;4.63;2.10;;;19.80;99.90;;;;;;5154141;27;20186;-53
2022/09/22 12:19:24;;;;;;;2.85;1.98;;;19.90;99.90;;;;;;5154056;27;20619;-53
2022/09/22 12:22:11;;;;;;;1.88;1.77;;;19.80;99.90;;;;;;5153785;27;20660;-52
2022/09/22 12:24:37;;;;;;;3.53;1.80;;;19.60;99.90;;;;;;5153632;27;20163;-53
2022/09/22 12:27:11;;;;;;;2.88;1.83;;;19.60;99.90;;;;;;5153776;27;20646;-53
2022/09/22 12:29:37;;;;;;;4.10;2.08;;;19.90;99.90;;;;;;5153702;27;20154;-52
2022/09/22 12:32:04;;;;;;;3.17;2.00;;;19.80;99.90;;;;;;5153559;27;20203;-53
2022/09/22 12:34:32;;;;;;;2.60;1.92;;;19.80;99.90;;;;;;5153663;27;20155;-52
2022/09/22 12:37:09;;;;;;;2.42;1.52;;;19.90;99.90;;;;;;5153632;27;20298;-53
2022/09/22 12:39:45;;;;;;;4.70;2.58;;;24.00;99.90;;;;;;5150939;27;20166;-53
2022/09/22 12:42:21;;;;;;;3.13;1.70;;;19.90;99.90;;;;;;5133105;27;20239;-52
2022/09/22 12:45:05;;;;;;;3.90;1.75;;;19.90;99.90;;;;;;5133043;27;20790;-54
2022/09/22 12:47:39;;;;;;;2.60;2.40;;;19.50;99.90;;;;;;5132580;27;20168;-54
2022/09/22 12:50:30;;;;;;;5.30;1.75;;;19.50;99.90;;;;;;5132902;27;20194;-53
2022/09/22 12:53:02;;;;;;;1.85;1.65;;;19.80;99.90;;;;;;5126532;27;20178;-54
2022/09/22 12:55:27;;;;;;;2.75;1.80;;;19.90;99.90;;;;;;5132793;27;20206;-53
2022/09/22 12:58:01;;;;;;;1.95;1.70;;;19.70;99.90;;;;;;5132672;27;20620;-53
2022/09/22 13:00:39;;;;;;;2.70;1.80;;;19.50;99.90;;;;;;5132737;27;20263;-53
2022/09/22 13:03:24;;;;;;;2.28;1.80;;;19.40;99.90;;;;;;5132499;27;20156;-52
2022/09/22 13:06:02;;;;;;;3.63;1.77;;;19.80;99.90;;;;;;5132851;27;20585;-53
2022/09/22 13:08:30;;;;;;;2.33;2.00;;;19.80;99.90;;;;;;5132489;27;20159;-52
2022/09/22 13:11:07;;;;;;;2.15;1.60;;;19.80;99.90;;;;;;5132331;27;20286;-53
2022/09/22 13:13:35;;;;;;;3.40;1.70;;;19.80;99.90;;;;;;5132139;27;20176;-53
2022/09/22 13:16:20;;;;;;;2.95;1.70;;;19.20;99.90;;;;;;5132412;27;20176;-53
2022/09/22 13:18:50;;;;;;;3.08;1.48;;;19.30;99.90;;;;;;5132192;27;20175;-52
2022/09/22 13:21:17;;;;;;;2.30;1.45;;;19.60;99.90;;;;;;5132378;27;20160;-52
2022/09/22 13:24:01;;;;;;;5.15;1.95;;;19.80;99.90;;;;;;5132496;27;20771;-52
2022/09/22 13:26:32;;;;;;;1.60;1.50;;;19.90;99.90;;;;;;5131915;27;20189;-54
2022/09/22 13:29:19;;;;;;;1.75;1.27;;;19.90;99.90;;;;;;5131946;27;20163;-53